sensor_id;sensor_type;location;lat;lon;timestamp;temperature;humidity
11846;DHT22;5982;37.494;-8.758;2023-09-19T00:00:19;16.80;99.90
11846;DHT22;5982;37.494;-8.758;2023-09-19T00:02:52;16.80;99.90
11846;DHT22;5982;37.494;-8.758;2023-09-19T00:05:20;16.70;99.90
11846;DHT22;5982;37.494;-8.758;2023-09-19T00:07:50;16.70;99.90
11846;DHT22;5982;37.494;-8.758;2023-09-19T00:10:20;16.70;99.90
11846;DHT22;5982;37.494;-8.758;2023-09-19T00:12:51;16.70;99.90
11846;DHT22;5982;37.494;-8.758;2023-09-19T00:15:21;16.70;99.90
11846;DHT22;5982;37.494;-8.758;2023-09-19T00:17:49;16.70;99.90
11846;DHT22;5982;37.494;-8.758;2023-09-19T00:20:19;16.70;99.90
11846;DHT22;5982;37.494;-8.758;2023-09-19T00:22:48;16.70;99.90
11846;DHT22;5982;37.494;-8.758;2023-09-19T00:25:17;16.70;99.90
11846;DHT22;5982;37.494;-8.758;2023-09-19T00:27:45;16.60;99.90
11846;DHT22;5982;37.494;-8.758;2023-09-19T00:30:17;16.60;99.90
11846;DHT22;5982;37.494;-8.758;2023-09-19T00:32:47;16.60;99.90
11846;DHT22;5982;37.494;-8.758;2023-09-19T00:35:15;16.60;99.90
11846;DHT22;5982;37.494;-8.758;2023-09-19T00:37:43;16.60;99.90
11846;DHT22;5982;37.494;-8.758;2023-09-19T00:40:11;16.60;99.90
11846;DHT22;5982;37.494;-8.758;2023-09-19T00:42:41;16.70;99.90
11846;DHT22;5982;37.494;-8.758;2023-09-19T00:45:09;16.70;99.90
11846;DHT22;5982;37.494;-8.758;2023-09-19T00:47:39;16.70;99.90
11846;DHT22;5982;37.494;-8.758;2023-09-19T00:50:09;16.70;99.90
11846;DHT22;5982;37.494;-8.758;2023-09-19T00:52:40;16.80;99.90
11846;DHT22;5982;37.494;-8.758;2023-09-19T00:55:08;16.80;99.90
11846;DHT22;5982;37.494;-8.758;2023-09-19T00:57:37;16.80;99.90
11846;DHT22;5982;37.494;-8.758;2023-09-19T01:00:06;16.80;99.90
11846;DHT22;5982;37.494;-8.758;2023-09-19T01:02:39;16.80;99.90
11846;DHT22;5982;37.494;-8.758;2023-09-19T01:05:07;16.80;99.90
11846;DHT22;5982;37.494;-8.758;2023-09-19T01:07:35;16.90;99.90
11846;DHT22;5982;37.494;-8.758;2023-09-19T01:10:06;16.80;99.90
11846;DHT22;5982;37.494;-8.758;2023-09-19T01:12:39;16.80;99.90
11846;DHT22;5982;37.494;-8.758;2023-09-19T01:15:17;16.70;99.90
11846;DHT22;5982;37.494;-8.758;2023-09-19T01:17:52;16.80;99.90
11846;DHT22;5982;37.494;-8.758;2023-09-19T01:20:27;16.80;99.90
11846;DHT22;5982;37.494;-8.758;2023-09-19T01:23:06;16.90;99.90
11846;DHT22;5982;37.494;-8.758;2023-09-19T01:28:34;16.90;99.90
11846;DHT22;5982;37.494;-8.758;2023-09-19T01:31:14;17.00;99.90
11846;DHT22;5982;37.494;-8.758;2023-09-19T01:33:57;17.00;99.90
11846;DHT22;5982;37.494;-8.758;2023-09-19T01:36:30;17.00;99.90
11846;DHT22;5982;37.494;-8.758;2023-09-19T01:39:01;17.00;99.90
11846;DHT22;5982;37.494;-8.758;2023-09-19T01:41:41;17.00;99.90
11846;DHT22;5982;37.494;-8.758;2023-09-19T01:44:18;16.90;99.90
11846;DHT22;5982;37.494;-8.758;2023-09-19T01:46:51;16.90;99.90
11846;DHT22;5982;37.494;-8.758;2023-09-19T01:49:24;16.90;99.90
11846;DHT22;5982;37.494;-8.758;2023-09-19T01:51:59;17.00;99.90
11846;DHT22;5982;37.494;-8.758;2023-09-19T01:54:33;17.00;99.90
11846;DHT22;5982;37.494;-8.758;2023-09-19T01:57:06;16.90;99.90
11846;DHT22;5982;37.494;-8.758;2023-09-19T01:59:36;16.90;99.90
11846;DHT22;5982;37.494;-8.758;2023-09-19T02:02:09;16.80;99.90
11846;DHT22;5982;37.494;-8.758;2023-09-19T02:04:37;16.80;99.90
11846;DHT22;5982;37.494;-8.758;2023-09-19T02:07:05;16.80;99.90
11846;DHT22;5982;37.494;-8.758;2023-09-19T02:09:34;16.80;99.90
11846;DHT22;5982;37.494;-8.758;2023-09-19T02:12:05;16.80;99.90
11846;DHT22;5982;37.494;-8.758;2023-09-19T02:14:33;16.80;99.90
11846;DHT22;5982;37.494;-8.758;2023-09-19T02:17:01;16.80;99.90
11846;DHT22;5982;37.494;-8.758;2023-09-19T02:19:32;16.80;99.90
11846;DHT22;5982;37.494;-8.758;2023-09-19T02:22:00;16.90;99.90
11846;DHT22;5982;37.494;-8.758;2023-09-19T02:24:33;16.90;99.90
11846;DHT22;5982;37.494;-8.758;2023-09-19T02:27:00;16.90;99.90
11846;DHT22;5982;37.494;-8.758;2023-09-19T02:29:30;16.90;99.90
11846;DHT22;5982;37.494;-8.758;2023-09-19T02:31:57;16.90;99.90
11846;DHT22;5982;37.494;-8.758;2023-09-19T02:34:25;16.90;99.90
11846;DHT22;5982;37.494;-8.758;2023-09-19T02:36:54;16.90;99.90
11846;DHT22;5982;37.494;-8.758;2023-09-19T02:39:22;16.90;99.90
11846;DHT22;5982;37.494;-8.758;2023-09-19T02:41:50;16.90;99.90
11846;DHT22;5982;37.494;-8.758;2023-09-19T02:44:18;16.90;99.90
11846;DHT22;5982;37.494;-8.758;2023-09-19T02:46:45;16.90;99.90
11846;DHT22;5982;37.494;-8.758;2023-09-19T02:49:14;16.90;99.90
11846;DHT22;5982;37.494;-8.758;2023-09-19T02:51:43;16.90;99.90
11846;DHT22;5982;37.494;-8.758;2023-09-19T02:54:12;17.00;99.90
11846;DHT22;5982;37.494;-8.758;2023-09-19T02:56:41;16.90;99.90
11846;DHT22;5982;37.494;-8.758;2023-09-19T02:59:09;17.00;99.90
11846;DHT22;5982;37.494;-8.758;2023-09-19T03:01:37;16.90;99.90
11846;DHT22;5982;37.494;-8.758;2023-09-19T03:04:05;16.90;99.90
11846;DHT22;5982;37.494;-8.758;2023-09-19T03:06:38;16.80;99.90
11846;DHT22;5982;37.494;-8.758;2023-09-19T03:09:06;16.70;99.90
11846;DHT22;5982;37.494;-8.758;2023-09-19T03:11:40;16.70;99.90
11846;DHT22;5982;37.494;-8.758;2023-09-19T03:14:08;16.70;99.90
11846;DHT22;5982;37.494;-8.758;2023-09-19T03:16:37;16.60;99.90
11846;DHT22;5982;37.494;-8.758;2023-09-19T03:19:05;16.60;99.90
11846;DHT22;5982;37.494;-8.758;2023-09-19T03:21:36;16.60;99.90
11846;DHT22;5982;37.494;-8.758;2023-09-19T03:24:04;16.60;99.90
11846;DHT22;5982;37.494;-8.758;2023-09-19T03:26:32;16.60;99.90
11846;DHT22;5982;37.494;-8.758;2023-09-19T03:29:04;16.50;99.90
11846;DHT22;5982;37.494;-8.758;2023-09-19T03:31:33;16.50;99.90
11846;DHT22;5982;37.494;-8.758;2023-09-19T03:34:03;16.50;99.90
11846;DHT22;5982;37.494;-8.758;2023-09-19T03:36:31;16.50;99.90
11846;DHT22;5982;37.494;-8.758;2023-09-19T03:38:59;16.60;99.90
11846;DHT22;5982;37.494;-8.758;2023-09-19T03:41:26;16.60;99.90
11846;DHT22;5982;37.494;-8.758;2023-09-19T03:43:54;16.60;99.90
11846;DHT22;5982;37.494;-8.758;2023-09-19T03:46:23;16.50;99.90
11846;DHT22;5982;37.494;-8.758;2023-09-19T03:48:52;16.50;99.90
11846;DHT22;5982;37.494;-8.758;2023-09-19T03:51:20;16.50;99.90
11846;DHT22;5982;37.494;-8.758;2023-09-19T03:53:48;16.40;99.90
11846;DHT22;5982;37.494;-8.758;2023-09-19T03:56:16;16.40;99.90
11846;DHT22;5982;37.494;-8.758;2023-09-19T03:58:43;16.40;99.90
11846;DHT22;5982;37.494;-8.758;2023-09-19T04:01:11;16.50;99.90
11846;DHT22;5982;37.494;-8.758;2023-09-19T04:03:40;16.40;99.90
11846;DHT22;5982;37.494;-8.758;2023-09-19T04:06:16;16.40;99.90
11846;DHT22;5982;37.494;-8.758;2023-09-19T04:08:44;16.50;99.90
11846;DHT22;5982;37.494;-8.758;2023-09-19T04:11:12;16.50;99.90
11846;DHT22;5982;37.494;-8.758;2023-09-19T04:13:40;16.50;99.90
11846;DHT22;5982;37.494;-8.758;2023-09-19T04:16:08;16.40;99.90
11846;DHT22;5982;37.494;-8.758;2023-09-19T04:18:36;16.40;99.90
11846;DHT22;5982;37.494;-8.758;2023-09-19T04:21:06;16.40;99.90
11846;DHT22;5982;37.494;-8.758;2023-09-19T04:23:34;16.50;99.90
11846;DHT22;5982;37.494;-8.758;2023-09-19T04:26:02;16.50;99.90
11846;DHT22;5982;37.494;-8.758;2023-09-19T04:28:31;16.50;99.90
11846;DHT22;5982;37.494;-8.758;2023-09-19T04:30:59;16.40;99.90
11846;DHT22;5982;37.494;-8.758;2023-09-19T04:33:27;16.50;99.90
11846;DHT22;5982;37.494;-8.758;2023-09-19T04:35:55;16.40;99.90
11846;DHT22;5982;37.494;-8.758;2023-09-19T04:38:24;16.40;99.90
11846;DHT22;5982;37.494;-8.758;2023-09-19T04:40:56;16.40;99.90
11846;DHT22;5982;37.494;-8.758;2023-09-19T04:43:24;16.40;99.90
11846;DHT22;5982;37.494;-8.758;2023-09-19T04:45:52;16.40;99.90
11846;DHT22;5982;37.494;-8.758;2023-09-19T04:48:21;16.50;99.90
11846;DHT22;5982;37.494;-8.758;2023-09-19T04:50:50;16.50;99.90
11846;DHT22;5982;37.494;-8.758;2023-09-19T04:53:19;16.40;99.90
11846;DHT22;5982;37.494;-8.758;2023-09-19T04:55:51;16.30;99.90
11846;DHT22;5982;37.494;-8.758;2023-09-19T04:58:21;16.20;99.90
11846;DHT22;5982;37.494;-8.758;2023-09-19T05:00:49;16.10;99.90
11846;DHT22;5982;37.494;-8.758;2023-09-19T05:03:17;16.20;99.90
11846;DHT22;5982;37.494;-8.758;2023-09-19T05:05:45;16.20;99.90
11846;DHT22;5982;37.494;-8.758;2023-09-19T05:08:13;16.20;99.90
11846;DHT22;5982;37.494;-8.758;2023-09-19T05:10:41;16.20;99.90
11846;DHT22;5982;37.494;-8.758;2023-09-19T05:13:10;16.10;99.90
11846;DHT22;5982;37.494;-8.758;2023-09-19T05:15:39;16.10;99.90
11846;DHT22;5982;37.494;-8.758;2023-09-19T05:18:07;16.00;99.90
11846;DHT22;5982;37.494;-8.758;2023-09-19T05:20:34;16.00;99.90
11846;DHT22;5982;37.494;-8.758;2023-09-19T05:23:05;16.00;99.90
11846;DHT22;5982;37.494;-8.758;2023-09-19T05:25:38;16.00;99.90
11846;DHT22;5982;37.494;-8.758;2023-09-19T05:28:06;16.00;99.90
11846;DHT22;5982;37.494;-8.758;2023-09-19T05:30:36;15.90;99.90
11846;DHT22;5982;37.494;-8.758;2023-09-19T05:33:05;16.00;99.90
11846;DHT22;5982;37.494;-8.758;2023-09-19T05:35:33;16.00;99.90
11846;DHT22;5982;37.494;-8.758;2023-09-19T05:38:02;16.00;99.90
11846;DHT22;5982;37.494;-8.758;2023-09-19T05:40:31;16.00;99.90
11846;DHT22;5982;37.494;-8.758;2023-09-19T05:42:59;16.10;99.90
11846;DHT22;5982;37.494;-8.758;2023-09-19T05:45:27;16.10;99.90
11846;DHT22;5982;37.494;-8.758;2023-09-19T05:47:56;16.20;99.90
11846;DHT22;5982;37.494;-8.758;2023-09-19T05:50:30;16.20;99.90
11846;DHT22;5982;37.494;-8.758;2023-09-19T05:52:58;16.20;99.90
11846;DHT22;5982;37.494;-8.758;2023-09-19T05:55:25;16.20;99.90
11846;DHT22;5982;37.494;-8.758;2023-09-19T05:57:54;16.30;99.90
11846;DHT22;5982;37.494;-8.758;2023-09-19T06:00:22;16.20;99.90
11846;DHT22;5982;37.494;-8.758;2023-09-19T06:02:52;16.10;99.90
11846;DHT22;5982;37.494;-8.758;2023-09-19T06:05:22;16.10;99.90
11846;DHT22;5982;37.494;-8.758;2023-09-19T06:07:50;16.00;99.90
11846;DHT22;5982;37.494;-8.758;2023-09-19T06:10:18;15.90;99.90
11846;DHT22;5982;37.494;-8.758;2023-09-19T06:12:46;16.00;99.90
11846;DHT22;5982;37.494;-8.758;2023-09-19T06:15:14;16.00;99.90
11846;DHT22;5982;37.494;-8.758;2023-09-19T06:17:46;16.00;99.90
11846;DHT22;5982;37.494;-8.758;2023-09-19T06:20:14;15.90;99.90
11846;DHT22;5982;37.494;-8.758;2023-09-19T06:22:44;15.90;99.90
11846;DHT22;5982;37.494;-8.758;2023-09-19T06:25:13;15.90;99.90
11846;DHT22;5982;37.494;-8.758;2023-09-19T06:27:44;15.90;99.90
11846;DHT22;5982;37.494;-8.758;2023-09-19T06:30:12;16.00;99.90
11846;DHT22;5982;37.494;-8.758;2023-09-19T06:32:40;16.00;99.90
11846;DHT22;5982;37.494;-8.758;2023-09-19T06:35:09;16.00;99.90
11846;DHT22;5982;37.494;-8.758;2023-09-19T06:37:37;16.10;99.90
11846;DHT22;5982;37.494;-8.758;2023-09-19T06:40:08;16.20;99.90
11846;DHT22;5982;37.494;-8.758;2023-09-19T06:42:40;16.30;99.90
11846;DHT22;5982;37.494;-8.758;2023-09-19T06:45:08;16.40;99.90
11846;DHT22;5982;37.494;-8.758;2023-09-19T06:47:37;16.60;99.90
11846;DHT22;5982;37.494;-8.758;2023-09-19T06:50:05;16.70;99.90
11846;DHT22;5982;37.494;-8.758;2023-09-19T06:52:38;16.90;99.90
11846;DHT22;5982;37.494;-8.758;2023-09-19T06:55:08;17.10;99.90
11846;DHT22;5982;37.494;-8.758;2023-09-19T06:57:39;17.20;99.90
11846;DHT22;5982;37.494;-8.758;2023-09-19T07:00:09;17.70;99.90
11846;DHT22;5982;37.494;-8.758;2023-09-19T07:02:42;18.60;99.90
11846;DHT22;5982;37.494;-8.758;2023-09-19T07:05:10;19.40;99.90
11846;DHT22;5982;37.494;-8.758;2023-09-19T07:07:38;20.10;99.90
11846;DHT22;5982;37.494;-8.758;2023-09-19T07:10:08;20.70;99.90
11846;DHT22;5982;37.494;-8.758;2023-09-19T07:12:39;21.20;99.90
11846;DHT22;5982;37.494;-8.758;2023-09-19T07:15:07;21.60;99.90
11846;DHT22;5982;37.494;-8.758;2023-09-19T07:17:35;22.10;99.90
11846;DHT22;5982;37.494;-8.758;2023-09-19T07:20:04;22.70;99.90
11846;DHT22;5982;37.494;-8.758;2023-09-19T07:22:33;23.30;99.90
11846;DHT22;5982;37.494;-8.758;2023-09-19T07:25:02;23.70;99.90
11846;DHT22;5982;37.494;-8.758;2023-09-19T07:27:31;24.10;99.90
11846;DHT22;5982;37.494;-8.758;2023-09-19T07:29:59;24.40;99.90
11846;DHT22;5982;37.494;-8.758;2023-09-19T07:32:27;24.30;99.90
11846;DHT22;5982;37.494;-8.758;2023-09-19T07:34:54;23.60;99.90
11846;DHT22;5982;37.494;-8.758;2023-09-19T07:37:22;23.00;99.90
11846;DHT22;5982;37.494;-8.758;2023-09-19T07:39:51;22.60;99.90
11846;DHT22;5982;37.494;-8.758;2023-09-19T07:42:19;22.40;99.90
11846;DHT22;5982;37.494;-8.758;2023-09-19T07:44:48;22.10;99.90
11846;DHT22;5982;37.494;-8.758;2023-09-19T07:47:16;21.90;99.90
11846;DHT22;5982;37.494;-8.758;2023-09-19T07:49:47;21.80;99.90
11846;DHT22;5982;37.494;-8.758;2023-09-19T07:52:14;21.70;99.90
11846;DHT22;5982;37.494;-8.758;2023-09-19T07:54:42;21.70;99.90
11846;DHT22;5982;37.494;-8.758;2023-09-19T07:57:10;21.60;99.90
11846;DHT22;5982;37.494;-8.758;2023-09-19T07:59:41;21.70;99.90
11846;DHT22;5982;37.494;-8.758;2023-09-19T08:02:10;21.60;99.90
11846;DHT22;5982;37.494;-8.758;2023-09-19T08:04:41;21.60;99.90
11846;DHT22;5982;37.494;-8.758;2023-09-19T08:07:09;21.70;99.90
11846;DHT22;5982;37.494;-8.758;2023-09-19T08:09:36;21.80;99.90
11846;DHT22;5982;37.494;-8.758;2023-09-19T08:12:04;21.80;99.90
11846;DHT22;5982;37.494;-8.758;2023-09-19T08:14:35;21.90;99.90
11846;DHT22;5982;37.494;-8.758;2023-09-19T08:17:04;22.00;99.90
11846;DHT22;5982;37.494;-8.758;2023-09-19T08:19:35;22.00;99.90
11846;DHT22;5982;37.494;-8.758;2023-09-19T08:22:07;22.10;99.90
11846;DHT22;5982;37.494;-8.758;2023-09-19T08:24:36;22.30;99.90
11846;DHT22;5982;37.494;-8.758;2023-09-19T08:27:04;22.30;99.90
11846;DHT22;5982;37.494;-8.758;2023-09-19T08:29:35;22.30;99.90
11846;DHT22;5982;37.494;-8.758;2023-09-19T08:32:03;22.40;99.90
11846;DHT22;5982;37.494;-8.758;2023-09-19T08:34:31;22.50;99.90
11846;DHT22;5982;37.494;-8.758;2023-09-19T08:37:01;22.60;99.90
11846;DHT22;5982;37.494;-8.758;2023-09-19T08:39:28;22.60;99.90
11846;DHT22;5982;37.494;-8.758;2023-09-19T08:41:59;22.70;99.90
11846;DHT22;5982;37.494;-8.758;2023-09-19T08:44:27;22.70;99.90
11846;DHT22;5982;37.494;-8.758;2023-09-19T08:46:59;22.80;99.90
11846;DHT22;5982;37.494;-8.758;2023-09-19T08:49:33;22.80;99.90
11846;DHT22;5982;37.494;-8.758;2023-09-19T08:52:08;22.80;99.90
11846;DHT22;5982;37.494;-8.758;2023-09-19T08:54:40;22.90;99.90
11846;DHT22;5982;37.494;-8.758;2023-09-19T08:57:09;23.00;99.90
11846;DHT22;5982;37.494;-8.758;2023-09-19T08:59:47;23.10;99.90
11846;DHT22;5982;37.494;-8.758;2023-09-19T09:02:15;23.30;99.90
11846;DHT22;5982;37.494;-8.758;2023-09-19T09:04:44;23.30;99.90
11846;DHT22;5982;37.494;-8.758;2023-09-19T09:07:14;23.30;99.90
11846;DHT22;5982;37.494;-8.758;2023-09-19T09:09:44;23.50;99.90
11846;DHT22;5982;37.494;-8.758;2023-09-19T09:12:14;23.60;99.90
11846;DHT22;5982;37.494;-8.758;2023-09-19T09:14:43;23.70;99.90
11846;DHT22;5982;37.494;-8.758;2023-09-19T09:17:12;23.70;99.90
11846;DHT22;5982;37.494;-8.758;2023-09-19T09:19:39;23.80;99.90
11846;DHT22;5982;37.494;-8.758;2023-09-19T09:22:08;23.90;99.90
11846;DHT22;5982;37.494;-8.758;2023-09-19T09:24:51;24.10;99.90
11846;DHT22;5982;37.494;-8.758;2023-09-19T09:27:23;24.10;99.90
11846;DHT22;5982;37.494;-8.758;2023-09-19T09:29:52;24.20;99.90
11846;DHT22;5982;37.494;-8.758;2023-09-19T09:32:22;24.20;99.90
11846;DHT22;5982;37.494;-8.758;2023-09-19T09:34:51;24.30;99.90
11846;DHT22;5982;37.494;-8.758;2023-09-19T09:37:20;24.30;99.90
11846;DHT22;5982;37.494;-8.758;2023-09-19T09:39:52;24.30;99.90
11846;DHT22;5982;37.494;-8.758;2023-09-19T09:45:13;24.60;99.90
11846;DHT22;5982;37.494;-8.758;2023-09-19T09:47:42;24.70;99.90
11846;DHT22;5982;37.494;-8.758;2023-09-19T09:50:26;24.70;99.90
11846;DHT22;5982;37.494;-8.758;2023-09-19T09:53:19;24.90;99.90
11846;DHT22;5982;37.494;-8.758;2023-09-19T09:55:58;24.90;99.90
11846;DHT22;5982;37.494;-8.758;2023-09-19T09:58:26;25.10;99.90
11846;DHT22;5982;37.494;-8.758;2023-09-19T10:00:57;25.10;99.90
11846;DHT22;5982;37.494;-8.758;2023-09-19T10:03:32;25.20;99.90
11846;DHT22;5982;37.494;-8.758;2023-09-19T10:06:04;25.20;99.90
11846;DHT22;5982;37.494;-8.758;2023-09-19T10:09:00;25.20;99.90
11846;DHT22;5982;37.494;-8.758;2023-09-19T10:11:42;25.30;99.90
11846;DHT22;5982;37.494;-8.758;2023-09-19T10:14:11;25.20;99.90
11846;DHT22;5982;37.494;-8.758;2023-09-19T10:16:40;25.10;99.90
11846;DHT22;5982;37.494;-8.758;2023-09-19T10:19:14;25.10;99.90
11846;DHT22;5982;37.494;-8.758;2023-09-19T10:21:43;24.90;99.90
11846;DHT22;5982;37.494;-8.758;2023-09-19T10:24:11;24.90;99.90
11846;DHT22;5982;37.494;-8.758;2023-09-19T10:26:43;24.90;99.90
11846;DHT22;5982;37.494;-8.758;2023-09-19T10:29:11;24.90;99.90
11846;DHT22;5982;37.494;-8.758;2023-09-19T10:31:42;24.90;99.90
11846;DHT22;5982;37.494;-8.758;2023-09-19T10:34:13;24.80;99.90
11846;DHT22;5982;37.494;-8.758;2023-09-19T10:36:43;24.70;99.90
11846;DHT22;5982;37.494;-8.758;2023-09-19T10:39:13;24.70;99.90
11846;DHT22;5982;37.494;-8.758;2023-09-19T10:41:50;24.80;99.90
11846;DHT22;5982;37.494;-8.758;2023-09-19T10:44:24;24.90;99.90
11846;DHT22;5982;37.494;-8.758;2023-09-19T10:46:54;24.90;99.90
11846;DHT22;5982;37.494;-8.758;2023-09-19T10:49:22;25.00;99.90
11846;DHT22;5982;37.494;-8.758;2023-09-19T10:51:52;25.10;99.90
11846;DHT22;5982;37.494;-8.758;2023-09-19T10:54:24;25.20;99.90
11846;DHT22;5982;37.494;-8.758;2023-09-19T10:56:56;25.20;99.90
11846;DHT22;5982;37.494;-8.758;2023-09-19T10:59:24;25.20;99.90
11846;DHT22;5982;37.494;-8.758;2023-09-19T11:02:00;25.30;99.90
11846;DHT22;5982;37.494;-8.758;2023-09-19T11:04:43;25.30;99.90
11846;DHT22;5982;37.494;-8.758;2023-09-19T11:07:13;25.40;99.90
11846;DHT22;5982;37.494;-8.758;2023-09-19T11:09:48;25.50;99.90
11846;DHT22;5982;37.494;-8.758;2023-09-19T11:21:38;25.40;99.90
11846;DHT22;5982;37.494;-8.758;2023-09-19T11:27:12;25.20;99.90
11846;DHT22;5982;37.494;-8.758;2023-09-19T11:29:44;25.20;99.90
11846;DHT22;5982;37.494;-8.758;2023-09-19T11:32:12;25.20;99.90
11846;DHT22;5982;37.494;-8.758;2023-09-19T11:34:42;25.30;99.90
11846;DHT22;5982;37.494;-8.758;2023-09-19T11:40:44;25.60;99.90
11846;DHT22;5982;37.494;-8.758;2023-09-19T11:43:30;25.60;99.90
11846;DHT22;5982;37.494;-8.758;2023-09-19T11:46:07;25.70;99.90
11846;DHT22;5982;37.494;-8.758;2023-09-19T11:48:38;25.70;99.90
11846;DHT22;5982;37.494;-8.758;2023-09-19T11:51:10;25.70;99.90
11846;DHT22;5982;37.494;-8.758;2023-09-19T11:53:45;25.70;99.90
11846;DHT22;5982;37.494;-8.758;2023-09-19T11:56:15;25.70;99.90
11846;DHT22;5982;37.494;-8.758;2023-09-19T11:58:44;25.50;99.90
11846;DHT22;5982;37.494;-8.758;2023-09-19T12:01:14;25.50;99.90
11846;DHT22;5982;37.494;-8.758;2023-09-19T12:03:46;25.40;99.90
11846;DHT22;5982;37.494;-8.758;2023-09-19T12:06:15;25.30;99.90
11846;DHT22;5982;37.494;-8.758;2023-09-19T12:08:43;25.20;99.90
11846;DHT22;5982;37.494;-8.758;2023-09-19T12:11:16;25.30;99.90
11846;DHT22;5982;37.494;-8.758;2023-09-19T12:13:45;25.20;99.90
11846;DHT22;5982;37.494;-8.758;2023-09-19T12:16:16;25.10;99.90
11846;DHT22;5982;37.494;-8.758;2023-09-19T12:18:47;25.20;99.90
11846;DHT22;5982;37.494;-8.758;2023-09-19T12:21:22;25.10;99.90
11846;DHT22;5982;37.494;-8.758;2023-09-19T12:26:45;24.80;99.90
11846;DHT22;5982;37.494;-8.758;2023-09-19T12:29:15;24.70;99.90
11846;DHT22;5982;37.494;-8.758;2023-09-19T12:31:49;24.60;99.90
11846;DHT22;5982;37.494;-8.758;2023-09-19T12:34:21;24.60;99.90
11846;DHT22;5982;37.494;-8.758;2023-09-19T12:37:08;24.70;99.90
11846;DHT22;5982;37.494;-8.758;2023-09-19T12:39:44;24.70;99.90
11846;DHT22;5982;37.494;-8.758;2023-09-19T12:42:15;24.70;99.90
11846;DHT22;5982;37.494;-8.758;2023-09-19T12:44:43;24.70;99.90
11846;DHT22;5982;37.494;-8.758;2023-09-19T12:47:14;24.80;99.90
11846;DHT22;5982;37.494;-8.758;2023-09-19T12:52:39;25.00;99.90
11846;DHT22;5982;37.494;-8.758;2023-09-19T12:55:07;24.90;99.90
11846;DHT22;5982;37.494;-8.758;2023-09-19T12:57:36;25.00;99.90
11846;DHT22;5982;37.494;-8.758;2023-09-19T13:00:05;25.20;99.90
11846;DHT22;5982;37.494;-8.758;2023-09-19T13:02:38;25.20;99.90
11846;DHT22;5982;37.494;-8.758;2023-09-19T13:05:51;25.30;99.90
11846;DHT22;5982;37.494;-8.758;2023-09-19T13:08:21;25.40;99.90
11846;DHT22;5982;37.494;-8.758;2023-09-19T13:11:04;25.40;99.90
11846;DHT22;5982;37.494;-8.758;2023-09-19T13:13:35;25.20;99.90
11846;DHT22;5982;37.494;-8.758;2023-09-19T13:16:04;25.30;99.90
11846;DHT22;5982;37.494;-8.758;2023-09-19T13:18:48;25.50;99.90
11846;DHT22;5982;37.494;-8.758;2023-09-19T13:21:26;25.60;99.90
11846;DHT22;5982;37.494;-8.758;2023-09-19T13:24:19;25.60;99.90
11846;DHT22;5982;37.494;-8.758;2023-09-19T13:26:48;25.60;99.90
11846;DHT22;5982;37.494;-8.758;2023-09-19T13:29:16;25.50;99.90
11846;DHT22;5982;37.494;-8.758;2023-09-19T13:31:45;25.40;99.90
11846;DHT22;5982;37.494;-8.758;2023-09-19T13:34:15;25.40;99.90
11846;DHT22;5982;37.494;-8.758;2023-09-19T13:36:43;25.40;99.90
11846;DHT22;5982;37.494;-8.758;2023-09-19T13:39:14;25.30;99.90
11846;DHT22;5982;37.494;-8.758;2023-09-19T13:41:43;25.30;99.90
11846;DHT22;5982;37.494;-8.758;2023-09-19T13:44:12;25.20;99.90
11846;DHT22;5982;37.494;-8.758;2023-09-19T13:46:39;25.30;99.90
11846;DHT22;5982;37.494;-8.758;2023-09-19T13:49:11;25.30;99.90
11846;DHT22;5982;37.494;-8.758;2023-09-19T13:51:40;25.40;99.90
11846;DHT22;5982;37.494;-8.758;2023-09-19T13:54:09;25.30;99.90
11846;DHT22;5982;37.494;-8.758;2023-09-19T13:56:38;25.40;99.90
11846;DHT22;5982;37.494;-8.758;2023-09-19T13:59:05;25.40;99.90
11846;DHT22;5982;37.494;-8.758;2023-09-19T14:01:33;25.40;99.90
11846;DHT22;5982;37.494;-8.758;2023-09-19T14:04:01;25.50;99.90
11846;DHT22;5982;37.494;-8.758;2023-09-19T14:06:29;25.50;99.90
11846;DHT22;5982;37.494;-8.758;2023-09-19T14:08:58;25.50;99.90
11846;DHT22;5982;37.494;-8.758;2023-09-19T14:11:26;25.50;99.90
11846;DHT22;5982;37.494;-8.758;2023-09-19T14:13:54;25.60;99.90
11846;DHT22;5982;37.494;-8.758;2023-09-19T14:16:23;25.70;99.90
11846;DHT22;5982;37.494;-8.758;2023-09-19T14:18:55;25.80;99.90
11846;DHT22;5982;37.494;-8.758;2023-09-19T14:21:23;25.70;99.90
11846;DHT22;5982;37.494;-8.758;2023-09-19T14:23:51;25.90;99.90
11846;DHT22;5982;37.494;-8.758;2023-09-19T14:26:21;25.80;99.90
11846;DHT22;5982;37.494;-8.758;2023-09-19T14:28:50;25.80;99.90
11846;DHT22;5982;37.494;-8.758;2023-09-19T14:31:17;25.50;99.90
11846;DHT22;5982;37.494;-8.758;2023-09-19T14:33:45;25.50;99.90
11846;DHT22;5982;37.494;-8.758;2023-09-19T14:36:19;25.50;99.90
11846;DHT22;5982;37.494;-8.758;2023-09-19T14:38:47;25.40;99.90
11846;DHT22;5982;37.494;-8.758;2023-09-19T14:41:16;25.40;99.90
11846;DHT22;5982;37.494;-8.758;2023-09-19T14:43:45;25.40;99.90
11846;DHT22;5982;37.494;-8.758;2023-09-19T14:46:13;25.50;99.90
11846;DHT22;5982;37.494;-8.758;2023-09-19T14:48:41;25.70;99.90
11846;DHT22;5982;37.494;-8.758;2023-09-19T14:51:10;25.70;99.90
11846;DHT22;5982;37.494;-8.758;2023-09-19T14:53:37;25.70;99.90
11846;DHT22;5982;37.494;-8.758;2023-09-19T14:56:07;25.70;99.90
11846;DHT22;5982;37.494;-8.758;2023-09-19T14:58:35;25.70;99.90
11846;DHT22;5982;37.494;-8.758;2023-09-19T15:01:06;25.90;99.90
11846;DHT22;5982;37.494;-8.758;2023-09-19T15:03:36;25.80;99.90
11846;DHT22;5982;37.494;-8.758;2023-09-19T15:06:05;25.80;99.90
11846;DHT22;5982;37.494;-8.758;2023-09-19T15:08:34;25.90;99.90
11846;DHT22;5982;37.494;-8.758;2023-09-19T15:11:03;26.10;99.90
11846;DHT22;5982;37.494;-8.758;2023-09-19T15:13:32;26.10;99.90
11846;DHT22;5982;37.494;-8.758;2023-09-19T15:16:00;26.20;99.90
11846;DHT22;5982;37.494;-8.758;2023-09-19T15:18:30;26.30;99.90
11846;DHT22;5982;37.494;-8.758;2023-09-19T15:21:00;26.30;99.90
11846;DHT22;5982;37.494;-8.758;2023-09-19T15:23:29;26.40;99.90
11846;DHT22;5982;37.494;-8.758;2023-09-19T15:25:58;26.30;99.90
11846;DHT22;5982;37.494;-8.758;2023-09-19T15:28:25;26.30;99.90
11846;DHT22;5982;37.494;-8.758;2023-09-19T15:30:57;26.20;99.90
11846;DHT22;5982;37.494;-8.758;2023-09-19T15:33:25;26.20;99.90
11846;DHT22;5982;37.494;-8.758;2023-09-19T15:36:01;26.20;99.90
11846;DHT22;5982;37.494;-8.758;2023-09-19T15:38:30;26.20;99.90
11846;DHT22;5982;37.494;-8.758;2023-09-19T15:40:58;26.30;99.90
11846;DHT22;5982;37.494;-8.758;2023-09-19T15:43:26;26.30;99.90
11846;DHT22;5982;37.494;-8.758;2023-09-19T15:45:54;26.30;99.90
11846;DHT22;5982;37.494;-8.758;2023-09-19T15:48:22;26.40;99.90
11846;DHT22;5982;37.494;-8.758;2023-09-19T15:50:49;26.40;99.90
11846;DHT22;5982;37.494;-8.758;2023-09-19T15:53:18;26.40;99.90
11846;DHT22;5982;37.494;-8.758;2023-09-19T15:55:46;26.40;99.90
11846;DHT22;5982;37.494;-8.758;2023-09-19T15:58:14;26.40;99.90
11846;DHT22;5982;37.494;-8.758;2023-09-19T16:00:41;26.40;99.90
11846;DHT22;5982;37.494;-8.758;2023-09-19T16:03:09;26.40;99.90
11846;DHT22;5982;37.494;-8.758;2023-09-19T16:05:37;26.40;99.90
11846;DHT22;5982;37.494;-8.758;2023-09-19T16:08:05;26.40;99.90
11846;DHT22;5982;37.494;-8.758;2023-09-19T16:10:36;26.30;99.90
11846;DHT22;5982;37.494;-8.758;2023-09-19T16:13:04;26.30;99.90
11846;DHT22;5982;37.494;-8.758;2023-09-19T16:15:31;26.10;99.90